createdAt,value
2022-09-07T00:00:58.809Z,21.30
2022-09-07T00:03:25.735Z,21.20
2022-09-07T00:05:53.033Z,21.20
2022-09-07T00:08:23.563Z,21.20
2022-09-07T00:10:55.735Z,21.20
2022-09-07T00:13:24.543Z,21.20
2022-09-07T00:15:52.111Z,21.20
2022-09-07T00:18:19.623Z,21.10
2022-09-07T00:20:46.656Z,21.10
2022-09-07T00:23:13.740Z,21.10
2022-09-07T00:25:40.959Z,21.10
2022-09-07T00:28:09.099Z,21.00
2022-09-07T00:30:42.937Z,21.00
2022-09-07T00:33:10.027Z,21.00
2022-09-07T00:35:43.512Z,21.00
2022-09-07T00:38:10.452Z,20.90
2022-09-07T00:40:37.257Z,20.90
2022-09-07T00:43:06.085Z,20.80
2022-09-07T00:45:33.135Z,20.80
2022-09-07T00:48:17.049Z,20.80
2022-09-07T00:50:58.571Z,20.70
2022-09-07T00:54:07.624Z,20.70
2022-09-07T00:56:39.685Z,20.70
2022-09-07T00:59:08.200Z,20.70
2022-09-07T01:01:36.197Z,20.60
2022-09-07T01:04:03.982Z,20.60
2022-09-07T01:06:36.911Z,20.60
2022-09-07T01:09:12.544Z,20.60
2022-09-07T01:11:39.692Z,20.50
2022-09-07T01:14:12.594Z,20.50
2022-09-07T01:16:57.768Z,20.40
2022-09-07T01:19:39.214Z,20.50
2022-09-07T01:22:30.783Z,20.40
2022-09-07T01:25:22.365Z,20.40
2022-09-07T01:27:57.821Z,20.40
2022-09-07T01:30:25.943Z,20.40
2022-09-07T01:33:36.225Z,20.30
2022-09-07T01:36:33.748Z,20.30
2022-09-07T01:39:05.006Z,20.30
2022-09-07T01:42:32.333Z,20.20
2022-09-07T01:45:06.555Z,20.20
2022-09-07T01:47:47.013Z,20.20
2022-09-07T01:50:25.422Z,20.20
2022-09-07T01:53:15.407Z,20.20
2022-09-07T01:55:57.204Z,20.10
2022-09-07T01:58:40.871Z,20.10
2022-09-07T02:01:16.676Z,20.00
2022-09-07T02:04:06.048Z,20.10
2022-09-07T02:06:58.917Z,20.10
2022-09-07T02:09:34.206Z,20.00
2022-09-07T02:12:10.220Z,19.90
2022-09-07T02:14:42.196Z,19.90
2022-09-07T02:17:21.926Z,19.80
2022-09-07T02:20:07.796Z,19.80
2022-09-07T02:22:42.248Z,19.80
2022-09-07T02:25:16.864Z,19.70
2022-09-07T02:27:50.244Z,19.80
2022-09-07T02:30:17.549Z,19.70
2022-09-07T02:32:44.558Z,19.70
2022-09-07T02:35:12.236Z,19.70
2022-09-07T02:37:41.828Z,19.70
2022-09-07T02:40:09.966Z,19.70
2022-09-07T02:42:39.202Z,19.60
2022-09-07T02:45:11.957Z,19.60
2022-09-07T02:48:09.505Z,19.60
2022-09-07T02:50:56.217Z,19.60
2022-09-07T02:53:51.546Z,19.50
2022-09-07T02:56:42.566Z,19.50
2022-09-07T02:59:44.845Z,19.40
2022-09-07T03:02:28.843Z,19.50
2022-09-07T03:05:06.436Z,19.50
2022-09-07T03:07:44.300Z,19.40
2022-09-07T03:10:13.839Z,19.40
2022-09-07T03:12:48.108Z,19.40
2022-09-07T03:15:20.972Z,19.40
2022-09-07T03:17:49.049Z,19.30
2022-09-07T03:20:17.160Z,19.30
2022-09-07T03:22:49.544Z,19.30
2022-09-07T03:25:17.293Z,19.30
2022-09-07T03:27:44.098Z,19.30
2022-09-07T03:30:13.108Z,19.20
2022-09-07T03:32:40.155Z,19.20
2022-09-07T03:35:08.884Z,19.20
2022-09-07T03:37:37.565Z,19.20
2022-09-07T03:40:08.907Z,19.20
2022-09-07T03:42:36.588Z,19.20
2022-09-07T03:45:05.728Z,19.20
2022-09-07T03:47:35.443Z,19.20
2022-09-07T03:50:03.036Z,19.20
2022-09-07T03:52:29.927Z,19.20
2022-09-07T03:54:56.675Z,19.10
2022-09-07T03:57:23.494Z,19.10
2022-09-07T03:59:50.607Z,19.10
2022-09-07T04:02:17.700Z,19.10
2022-09-07T04:04:47.837Z,19.10
2022-09-07T04:07:15.733Z,19.00
2022-09-07T04:09:42.666Z,19.00
2022-09-07T04:12:09.598Z,19.00
2022-09-07T04:14:36.377Z,19.00
2022-09-07T04:17:03.210Z,19.00
2022-09-07T04:19:30.594Z,18.90
2022-09-07T04:21:57.448Z,18.90
2022-09-07T04:24:24.311Z,18.80
2022-09-07T04:26:51.080Z,18.80
2022-09-07T04:29:17.905Z,18.80
2022-09-07T04:31:44.679Z,18.80
2022-09-07T04:34:12.289Z,18.80
2022-09-07T04:36:39.046Z,18.70
2022-09-07T04:39:06.203Z,18.70
2022-09-07T04:41:34.234Z,18.70
2022-09-07T04:44:03.862Z,18.70
2022-09-07T04:46:34.483Z,18.70
2022-09-07T04:49:09.364Z,18.60
2022-09-07T04:51:38.967Z,18.60
2022-09-07T04:54:07.035Z,18.60
2022-09-07T04:56:34.164Z,18.60
2022-09-07T04:59:02.071Z,18.60
2022-09-07T05:01:29.905Z,18.60
2022-09-07T05:03:56.836Z,18.60
2022-09-07T05:06:24.171Z,18.60
2022-09-07T05:08:54.289Z,18.60
2022-09-07T05:11:28.742Z,18.60
2022-09-07T05:14:01.523Z,18.60
2022-09-07T05:16:29.845Z,18.60
2022-09-07T05:19:02.734Z,18.50
2022-09-07T05:21:33.021Z,18.60
2022-09-07T05:24:01.867Z,18.50
2022-09-07T05:26:31.847Z,18.50
2022-09-07T05:31:49.771Z,18.50
2022-09-07T05:34:32.453Z,18.50
2022-09-07T05:37:00.455Z,18.50
2022-09-07T05:39:27.562Z,18.60
2022-09-07T05:41:54.334Z,18.60
2022-09-07T05:47:08.342Z,18.60
2022-09-07T05:49:35.116Z,18.60
2022-09-07T05:52:02.212Z,18.70
2022-09-07T05:54:29.028Z,18.70
2022-09-07T05:56:55.778Z,18.70
2022-09-07T05:59:22.604Z,18.80
2022-09-07T06:01:49.460Z,18.80
2022-09-07T06:04:16.644Z,18.90
2022-09-07T06:06:47.808Z,18.90
2022-09-07T06:09:29.846Z,18.90
2022-09-07T06:11:57.362Z,19.00
2022-09-07T06:14:24.144Z,19.00
2022-09-07T06:16:51.074Z,19.10
2022-09-07T06:19:17.833Z,19.10
2022-09-07T06:21:44.644Z,19.10
2022-09-07T06:24:11.510Z,19.20
2022-09-07T06:26:38.264Z,19.20
2022-09-07T06:29:05.032Z,19.30
2022-09-07T06:31:31.946Z,19.30
2022-09-07T06:33:58.981Z,19.30
2022-09-07T06:36:27.949Z,19.50
2022-09-07T06:38:58.907Z,19.40
2022-09-07T06:44:16.431Z,19.60
2022-09-07T06:49:29.980Z,19.60
2022-09-07T06:51:56.765Z,19.70
2022-09-07T06:57:10.328Z,19.70
2022-09-07T06:59:38.199Z,19.80
2022-09-07T07:02:06.844Z,19.90
2022-09-07T07:04:39.415Z,19.90
2022-09-07T07:07:12.275Z,20.00
2022-09-07T07:09:39.387Z,20.10
2022-09-07T07:12:06.287Z,20.20
2022-09-07T07:14:35.551Z,20.20
2022-09-07T07:17:03.562Z,20.30
2022-09-07T07:19:30.300Z,20.30
2022-09-07T07:24:43.882Z,20.50
2022-09-07T07:27:10.707Z,20.60
2022-09-07T07:29:37.448Z,20.60
2022-09-07T07:32:04.332Z,20.70
2022-09-07T07:34:31.210Z,20.70
2022-09-07T07:36:57.974Z,20.80
2022-09-07T07:42:12.364Z,21.00
2022-09-07T07:44:39.186Z,21.00
2022-09-07T07:47:06.121Z,21.00
2022-09-07T07:49:33.039Z,21.10
2022-09-07T07:54:46.535Z,21.10
2022-09-07T07:57:13.411Z,21.30
2022-09-07T07:59:40.507Z,21.40
2022-09-07T08:02:10.109Z,21.50
2022-09-07T08:04:36.962Z,21.60
2022-09-07T08:07:09.487Z,21.60
2022-09-07T08:09:39.806Z,21.70
2022-09-07T08:12:06.699Z,21.80
2022-09-07T08:14:36.482Z,21.90
2022-09-07T08:17:03.204Z,21.90
2022-09-07T08:19:29.977Z,21.90
2022-09-07T08:21:56.749Z,22.00
2022-09-07T08:24:23.532Z,22.10
2022-09-07T08:26:50.562Z,22.20
2022-09-07T08:29:17.266Z,22.20
2022-09-07T08:31:44.637Z,22.30
2022-09-07T08:34:11.464Z,22.40
2022-09-07T08:36:38.255Z,22.40
2022-09-07T08:39:05.114Z,22.50
2022-09-07T08:42:16.014Z,22.50
2022-09-07T08:44:57.522Z,22.60
2022-09-07T08:47:48.957Z,22.60
2022-09-07T08:50:36.841Z,22.70
2022-09-07T08:53:15.233Z,22.80
2022-09-07T08:55:52.793Z,22.80
2022-09-07T08:58:52.764Z,22.90
2022-09-07T09:01:37.691Z,22.90
2022-09-07T09:04:25.432Z,23.00
2022-09-07T09:07:16.682Z,23.10
2022-09-07T09:10:02.068Z,23.10
2022-09-07T09:13:14.749Z,23.30
2022-09-07T09:16:13.604Z,23.30
2022-09-07T09:19:13.238Z,23.50
2022-09-07T09:21:40.993Z,23.60
2022-09-07T09:24:20.249Z,23.70
2022-09-07T09:26:53.604Z,23.80
2022-09-07T09:29:23.176Z,23.90
2022-09-07T09:31:50.134Z,24.10
2022-09-07T09:34:25.492Z,24.20
2022-09-07T09:36:56.853Z,24.20
2022-09-07T09:39:36.619Z,24.30
2022-09-07T09:42:17.505Z,24.50
2022-09-07T09:44:45.471Z,24.50
2022-09-07T09:47:32.602Z,24.60
2022-09-07T09:53:06.923Z,24.80
2022-09-07T09:55:37.605Z,24.90
2022-09-07T10:01:35.964Z,24.90
2022-09-07T10:04:34.739Z,25.00
2022-09-07T10:07:13.765Z,25.10
2022-09-07T10:09:48.451Z,25.20
2022-09-07T10:12:32.112Z,25.20
2022-09-07T10:15:01.774Z,25.30
2022-09-07T10:17:37.106Z,25.40
2022-09-07T10:20:16.545Z,25.50
2022-09-07T10:22:50.908Z,25.60
2022-09-07T10:25:44.404Z,25.70
2022-09-07T10:28:14.079Z,25.80
2022-09-07T10:31:14.089Z,26.00
2022-09-07T10:37:06.829Z,26.20
2022-09-07T10:40:06.003Z,26.40
2022-09-07T10:43:20.232Z,26.50
2022-09-07T10:46:12.282Z,26.60
2022-09-07T10:48:53.155Z,26.70
2022-09-07T10:51:42.638Z,26.80
2022-09-07T10:54:34.816Z,26.90
2022-09-07T10:57:54.875Z,27.00
2022-09-07T11:00:22.930Z,27.10
2022-09-07T11:06:41.481Z,27.30
2022-09-07T11:09:48.408Z,27.50
2022-09-07T11:12:28.156Z,27.60
2022-09-07T11:15:13.322Z,27.70
2022-09-07T11:17:53.908Z,27.80
2022-09-07T11:20:39.278Z,27.90
2022-09-07T11:23:24.335Z,28.00
2022-09-07T11:26:05.186Z,28.00
2022-09-07T11:28:41.285Z,28.10
2022-09-07T11:31:22.212Z,28.10
2022-09-07T11:34:25.294Z,28.20
2022-09-07T11:37:07.123Z,28.30
2022-09-07T11:40:03.648Z,28.30
2022-09-07T11:42:43.587Z,28.40
2022-09-07T11:45:38.902Z,28.40
2022-09-07T11:48:40.006Z,28.50
2022-09-07T11:51:39.867Z,28.50
2022-09-07T11:54:57.924Z,28.60
2022-09-07T11:58:07.259Z,28.70
2022-09-07T12:01:20.817Z,28.70
2022-09-07T12:04:16.456Z,28.80
2022-09-07T12:07:18.161Z,28.90
2022-09-07T12:10:18.776Z,28.90
2022-09-07T12:13:29.893Z,29.00
2022-09-07T12:16:15.118Z,29.00
2022-09-07T12:18:57.464Z,29.00
2022-09-07T12:21:45.481Z,29.10
2022-09-07T12:24:41.094Z,29.20
2022-09-07T12:27:19.933Z,29.30
2022-09-07T12:30:13.671Z,29.30
2022-09-07T12:32:54.990Z,29.40
2022-09-07T12:35:28.748Z,29.60
2022-09-07T12:38:17.633Z,29.60
2022-09-07T12:41:21.655Z,29.70
2022-09-07T12:43:48.357Z,29.80
2022-09-07T12:46:37.824Z,29.80
2022-09-07T12:49:39.829Z,29.70
2022-09-07T12:52:45.529Z,29.80
2022-09-07T12:55:30.102Z,29.90
2022-09-07T12:58:28.445Z,29.90
2022-09-07T13:01:21.355Z,29.90
2022-09-07T13:04:32.696Z,29.90
2022-09-07T13:07:43.699Z,29.90
2022-09-07T13:10:40.814Z,29.90
2022-09-07T13:14:01.270Z,29.90
2022-09-07T13:16:06.145Z,29.90
2022-09-07T13:18:35.905Z,29.80
2022-09-07T13:21:08.434Z,29.80
2022-09-07T13:23:38.878Z,29.80
2022-09-07T13:26:32.117Z,29.70
2022-09-07T13:29:04.380Z,29.70
2022-09-07T13:32:04.565Z,29.60
2022-09-07T13:34:34.068Z,29.70
2022-09-07T13:37:18.240Z,29.60
2022-09-07T13:39:53.476Z,29.60
2022-09-07T13:42:33.812Z,29.50
2022-09-07T13:45:07.612Z,29.50
2022-09-07T13:48:05.172Z,29.50
2022-09-07T13:51:01.553Z,29.50
2022-09-07T13:54:16.994Z,29.50
2022-09-07T13:57:22.088Z,29.50
2022-09-07T13:59:51.751Z,29.50
2022-09-07T14:02:31.617Z,29.50
2022-09-07T14:05:00.550Z,29.50
2022-09-07T14:07:30.728Z,29.50
2022-09-07T14:10:23.065Z,29.50
2022-09-07T14:13:06.575Z,29.50
2022-09-07T14:15:41.547Z,29.50
2022-09-07T14:18:15.366Z,29.50
2022-09-07T14:20:52.745Z,29.40
2022-09-07T14:23:28.082Z,29.40
2022-09-07T14:26:22.482Z,29.30
2022-09-07T14:28:54.357Z,29.30
2022-09-07T14:31:24.524Z,29.20
2022-09-07T14:34:00.326Z,29.20
2022-09-07T14:36:44.579Z,29.10
2022-09-07T14:39:15.468Z,29.20
2022-09-07T14:41:43.689Z,29.10
2022-09-07T14:44:43.041Z,29.10
2022-09-07T14:47:29.145Z,29.10
2022-09-07T14:50:05.658Z,29.00
2022-09-07T14:52:43.014Z,29.00
2022-09-07T14:55:38.735Z,29.00
2022-09-07T14:58:14.811Z,29.00
2022-09-07T15:00:46.820Z,29.00
2022-09-07T15:03:38.556Z,29.00
2022-09-07T15:06:07.588Z,29.00
2022-09-07T15:08:49.128Z,28.90
2022-09-07T15:11:34.884Z,28.90
2022-09-07T15:14:20.477Z,28.90
2022-09-07T15:19:50.231Z,28.90
2022-09-07T15:22:18.821Z,28.90
2022-09-07T15:24:49.759Z,29.00
2022-09-07T15:27:26.833Z,29.10
2022-09-07T15:29:53.732Z,29.10
2022-09-07T15:32:20.602Z,29.10
2022-09-07T15:34:47.524Z,29.10
2022-09-07T15:40:01.859Z,29.20
2022-09-07T15:45:16.405Z,29.20
2022-09-07T15:47:50.645Z,29.20
2022-09-07T15:50:19.222Z,29.20
2022-09-07T15:52:46.265Z,29.20
2022-09-07T15:55:13.647Z,29.20
2022-09-07T15:58:10.619Z,29.20
2022-09-07T16:00:27.163Z,29.20
2022-09-07T16:03:09.608Z,29.20
2022-09-07T16:05:44.029Z,29.30
2022-09-07T16:11:18.293Z,29.30
2022-09-07T16:13:46.869Z,29.30
2022-09-07T16:16:15.708Z,29.20
2022-09-07T16:18:46.759Z,29.30
2022-09-07T16:21:17.436Z,29.20
2022-09-07T16:23:53.119Z,29.20
2022-09-07T16:26:25.006Z,29.00
2022-09-07T16:28:53.639Z,29.00
2022-09-07T16:31:27.338Z,29.00
2022-09-07T16:33:54.518Z,28.90
2022-09-07T16:36:24.636Z,28.80
2022-09-07T16:39:00.782Z,28.80
2022-09-07T16:41:33.325Z,28.70
2022-09-07T16:44:00.178Z,28.60
2022-09-07T16:46:30.862Z,28.60
2022-09-07T16:48:57.571Z,28.50
2022-09-07T16:51:25.059Z,28.50
2022-09-07T16:53:56.137Z,28.40
2022-09-07T16:56:27.080Z,28.30
2022-09-07T16:59:04.196Z,28.30
2022-09-07T17:01:34.695Z,28.30
2022-09-07T17:04:05.505Z,28.30
2022-09-07T17:06:34.886Z,28.20
2022-09-07T17:09:01.597Z,28.20
2022-09-07T17:11:35.227Z,28.10
2022-09-07T17:14:05.011Z,28.20
2022-09-07T17:16:38.489Z,28.00
2022-09-07T17:21:55.378Z,27.90
2022-09-07T17:24:24.179Z,27.90
2022-09-07T17:26:51.051Z,27.80
2022-09-07T17:29:18.096Z,27.70
2022-09-07T17:34:31.895Z,27.70
2022-09-07T17:37:00.670Z,27.70
2022-09-07T17:39:28.239Z,27.60
2022-09-07T17:41:55.068Z,27.60
2022-09-07T17:44:23.518Z,27.50
2022-09-07T17:46:51.247Z,27.50
2022-09-07T17:49:18.124Z,27.40
2022-09-07T17:51:45.875Z,27.30
2022-09-07T17:54:15.816Z,27.30
2022-09-07T17:56:43.439Z,27.20
2022-09-07T18:01:57.972Z,26.90
2022-09-07T18:04:25.397Z,26.80
2022-09-07T18:06:54.237Z,26.60
2022-09-07T18:09:21.907Z,26.50
2022-09-07T18:11:49.913Z,26.40
2022-09-07T18:14:17.986Z,26.20
2022-09-07T18:16:48.827Z,26.20
2022-09-07T18:19:18.357Z,26.10
2022-09-07T18:21:47.828Z,25.90
2022-09-07T18:24:22.921Z,25.90
2022-09-07T18:26:53.112Z,25.80
2022-09-07T18:29:33.989Z,25.70
2022-09-07T18:32:08.229Z,25.70
2022-09-07T18:34:38.221Z,25.60
2022-09-07T18:37:06.046Z,25.50
2022-09-07T18:39:35.177Z,25.40
2022-09-07T18:42:02.009Z,25.30
2022-09-07T18:47:23.162Z,25.20
2022-09-07T18:49:55.019Z,25.20
2022-09-07T18:55:10.035Z,25.10
2022-09-07T18:57:37.514Z,25.10
2022-09-07T19:00:07.849Z,25.10
2022-09-07T19:02:35.580Z,25.00
2022-09-07T19:07:49.316Z,24.90
2022-09-07T19:10:16.814Z,25.00
2022-09-07T19:12:45.853Z,24.90
2022-09-07T19:15:13.503Z,24.90
2022-09-07T19:17:40.284Z,24.90
2022-09-07T19:20:07.784Z,24.80
2022-09-07T19:22:34.569Z,24.90
2022-09-07T19:25:01.335Z,24.90
2022-09-07T19:27:28.187Z,24.90
2022-09-07T19:29:55.388Z,24.90
2022-09-07T19:32:22.150Z,24.90
2022-09-07T19:34:54.343Z,24.90
2022-09-07T19:37:25.873Z,24.70
2022-09-07T19:39:56.046Z,24.90
2022-09-07T19:42:24.086Z,24.80
2022-09-07T19:44:51.770Z,24.80
2022-09-07T19:47:19.126Z,24.80
2022-09-07T19:49:45.968Z,24.80
2022-09-07T19:52:12.821Z,24.70
2022-09-07T19:54:40.582Z,24.60
2022-09-07T19:57:07.792Z,24.70
2022-09-07T19:59:34.599Z,24.80
2022-09-07T20:02:01.958Z,24.70
2022-09-07T20:04:28.819Z,24.70
2022-09-07T20:06:56.334Z,24.70
2022-09-07T20:09:23.063Z,24.70
2022-09-07T20:11:49.818Z,24.60
2022-09-07T20:14:17.023Z,24.60
2022-09-07T20:16:43.922Z,24.60
2022-09-07T20:19:15.194Z,24.60
2022-09-07T20:21:43.096Z,24.50
2022-09-07T20:24:12.975Z,24.50
2022-09-07T20:26:39.737Z,24.50
2022-09-07T20:31:56.101Z,24.40
2022-09-07T20:34:23.284Z,24.40
2022-09-07T20:36:50.841Z,24.40
2022-09-07T20:39:18.174Z,24.30
2022-09-07T20:41:44.907Z,24.30
2022-09-07T20:44:12.509Z,24.30
2022-09-07T20:46:39.326Z,24.20
2022-09-07T20:49:06.264Z,24.20
2022-09-07T20:51:33.005Z,24.10
2022-09-07T20:54:00.011Z,24.10
2022-09-07T20:56:28.684Z,24.00
2022-09-07T20:59:00.537Z,24.00
2022-09-07T21:01:29.914Z,24.00
2022-09-07T21:03:59.109Z,23.90
2022-09-07T21:06:27.468Z,23.80
2022-09-07T21:08:57.141Z,23.80
2022-09-07T21:11:28.891Z,23.90
2022-09-07T21:14:06.531Z,23.70
2022-09-07T21:16:35.161Z,23.70
2022-09-07T21:19:05.669Z,23.60
2022-09-07T21:21:38.883Z,23.60
2022-09-07T21:24:07.646Z,23.60
2022-09-07T21:26:34.427Z,23.60
2022-09-07T21:29:04.944Z,23.50
2022-09-07T21:31:33.516Z,23.40
2022-09-07T21:34:02.026Z,23.50
2022-09-07T21:36:30.686Z,23.50
2022-09-07T21:38:57.535Z,23.50
2022-09-07T21:41:25.633Z,23.40
2022-09-07T21:44:00.319Z,23.40
2022-09-07T21:46:30.133Z,23.40
2022-09-07T21:48:58.444Z,23.40
2022-09-07T21:51:27.681Z,23.40
2022-09-07T21:53:57.138Z,23.40
2022-09-07T21:56:24.759Z,23.30
2022-09-07T21:59:00.122Z,23.30
2022-09-07T22:01:28.865Z,23.30
2022-09-07T22:04:04.823Z,23.30
2022-09-07T22:06:32.681Z,23.30
2022-09-07T22:09:01.127Z,23.30
2022-09-07T22:11:29.624Z,23.20
2022-09-07T22:14:03.170Z,23.30
2022-09-07T22:16:32.378Z,23.20
2022-09-07T22:18:59.347Z,23.20
2022-09-07T22:21:28.910Z,23.20
2022-09-07T22:24:03.154Z,23.10
2022-09-07T22:26:37.505Z,23.10
2022-09-07T22:29:06.908Z,23.10
2022-09-07T22:31:36.186Z,23.10
2022-09-07T22:34:06.208Z,23.10
2022-09-07T22:36:36.422Z,23.10
2022-09-07T22:39:09.325Z,23.00
2022-09-07T22:41:38.949Z,23.00
2022-09-07T22:44:10.172Z,22.80
2022-09-07T22:46:40.484Z,22.90
2022-09-07T22:49:10.005Z,22.90
2022-09-07T22:51:36.789Z,22.80
2022-09-07T22:54:03.977Z,22.80
2022-09-07T22:56:33.487Z,22.80
2022-09-07T22:59:04.428Z,22.70
2022-09-07T23:01:32.337Z,22.70
2022-09-07T23:04:00.438Z,22.70
2022-09-07T23:06:31.475Z,22.60
2022-09-07T23:09:01.877Z,22.60
2022-09-07T23:11:29.486Z,22.60
2022-09-07T23:13:59.440Z,22.60
2022-09-07T23:16:27.943Z,22.60
2022-09-07T23:18:57.385Z,22.60
2022-09-07T23:21:26.286Z,22.50
2022-09-07T23:23:56.839Z,22.50
2022-09-07T23:26:28.841Z,22.50
2022-09-07T23:28:59.391Z,22.40
2022-09-07T23:31:28.058Z,22.40
2022-09-07T23:33:59.895Z,22.40
2022-09-07T23:36:27.687Z,22.40
2022-09-07T23:38:57.122Z,22.30
2022-09-07T23:41:26.125Z,22.30
2022-09-07T23:43:54.377Z,22.30
2022-09-07T23:46:21.396Z,22.20
2022-09-07T23:48:48.992Z,22.20
2022-09-07T23:51:21.206Z,22.20
2022-09-07T23:53:48.252Z,22.20
2022-09-07T23:56:15.197Z,22.10
2022-09-07T23:58:41.974Z,22.00
